Bristol, Tennessee
Current Conditions -  °F | °C
As of 6:15 AM on Sunday 23 Nov 2014 (Local Time) from KVJI Reporting Station
Clear Clear  
Wind Chill: 37°   Ceiling: Unl
Heat Index: 42°   Visibility: 10mi
Dew Point: 27°   Wind: 7mph
Humidity: 56%   Direction: 90°E
Pressure: 30.16"   Gusts: NA
Location:  36.59°N, 82.22°W
Report Text: KVJI 231115Z AUTO 09006KT 10SM CLR 06/M03 A3016 RMK AO2 T00551026
Loading
Personal Weather Stations






























Interactive Weather Map New forecast layout! Learn more

10-Day Weather Forecast

Advertisements
Track Severe Weather on mobile